Time;durP1;ratioP1;P1;durP2;ratioP2;P2;SDS_P1;SDS_P2;PMS_P1;PMS_P2;Temp;Humidity;BMP_temperature;BMP_pressure;BME280_temperature;BME280_humidity;BME280_pressure;Samples;Min_cycle;Max_cycle;Signal;HPM_P1;HPM_P2
2022/05/15 00:02:03;;;;;;;6.90;5.90;;;;;;;8.19;67.44;100063.48;214446;1274;140213;-62
2022/05/15 00:07:07;;;;;;;6.80;5.70;;;;;;;8.11;67.68;100068.04;214010;1274;141646;-63
2022/05/15 00:12:10;;;;;;;9.30;5.30;;;;;;;8.07;67.89;100069.81;214669;1274;141146;-63
2022/05/15 00:17:12;;;;;;;5.80;5.20;;;;;;;8.00;67.94;100074.16;213683;1274;139575;-62
2022/05/15 00:22:15;;;;;;;6.00;5.00;;;;;;;7.84;67.69;100077.66;213244;1274;140639;-65
2022/05/15 00:27:17;;;;;;;8.10;5.10;;;;;;;7.60;67.87;100083.17;214323;1274;140353;-65
2022/05/15 00:32:18;;;;;;;11.10;5.60;;;;;;;7.45;68.43;100084.29;213229;1274;140019;-65
2022/05/15 00:37:21;;;;;;;6.80;5.10;;;;;;;7.40;68.73;100082.86;214115;1274;141105;-62
2022/05/15 00:42:24;;;;;;;13.10;5.70;;;;;;;7.37;69.40;100088.70;214503;1274;141655;-63
2022/05/15 00:47:27;;;;;;;10.10;5.60;;;;;;;7.38;69.56;100092.33;214070;1274;141473;-63
2022/05/15 00:52:33;;;;;;;5.70;5.00;;;;;;;7.38;69.45;100088.82;213996;1272;141786;-64
2022/05/15 00:57:50;;;;;;;11.00;7.70;;;;;;;7.34;69.72;100087.02;213865;1274;140628;-63
2022/05/15 01:03:29;;;;;;;8.80;6.30;;;;;;;7.28;69.84;100093.54;215402;1274;140914;-65
2022/05/15 01:08:30;;;;;;;9.80;5.80;;;;;;;7.21;69.66;100096.91;214821;1274;141237;-65
2022/05/15 01:13:35;;;;;;;11.70;5.90;;;;;;;7.15;70.01;100103.23;214565;1274;142139;-63
2022/05/15 01:18:39;;;;;;;13.50;5.50;;;;;;;7.08;70.08;100106.61;215363;1274;152625;-66
2022/05/15 01:23:41;;;;;;;8.50;4.10;;;;;;;7.04;70.70;100107.17;215971;1274;141436;-66
2022/05/15 01:28:45;;;;;;;8.70;5.00;;;;;;;7.02;71.12;100106.98;215225;1274;140744;-65
2022/05/15 01:33:49;;;;;;;9.30;5.70;;;;;;;7.11;71.67;100110.33;215434;1274;140130;-64
2022/05/15 01:38:53;;;;;;;7.30;5.60;;;;;;;7.23;71.70;100107.98;215004;1274;141328;-64
2022/05/15 01:43:56;;;;;;;6.50;5.70;;;;;;;7.25;71.53;100104.38;215088;1274;143071;-64
2022/05/15 01:49:02;;;;;;;8.40;5.90;;;;;;;7.25;71.32;100106.71;214525;1275;141442;-62
2022/05/15 01:54:06;;;;;;;8.30;4.90;;;;;;;7.20;71.01;100109.31;214329;1274;141279;-65
2022/05/15 01:59:10;;;;;;;9.50;5.70;;;;;;;7.06;71.04;100106.83;213667;1274;141228;-61
2022/05/15 02:04:13;;;;;;;7.30;5.50;;;;;;;6.89;71.32;100104.85;214137;1274;152101;-63
2022/05/15 02:09:17;;;;;;;11.60;6.30;;;;;;;6.78;71.59;100104.98;213473;1274;140344;-64
2022/05/15 02:14:18;;;;;;;11.60;7.20;;;;;;;6.67;71.40;100103.42;213520;1274;141016;-62
2022/05/15 02:19:21;;;;;;;8.80;6.70;;;;;;;6.55;71.70;100111.13;213789;1274;141695;-65
2022/05/15 02:24:25;;;;;;;9.50;6.50;;;;;;;6.46;71.55;100111.05;213278;1274;141092;-64
2022/05/15 02:29:28;;;;;;;13.30;5.60;;;;;;;6.37;71.73;100111.40;213637;1274;141292;-65
2022/05/15 02:34:31;;;;;;;7.60;5.70;;;;;;;6.24;71.80;100118.17;214114;1274;140062;-63
2022/05/15 02:39:33;;;;;;;15.20;6.40;;;;;;;6.12;72.09;100117.95;213571;1274;141323;-63
2022/05/15 02:44:37;;;;;;;14.60;6.60;;;;;;;6.14;72.37;100117.02;214742;1274;141863;-63
2022/05/15 02:55:02;;;;;;;11.00;8.20;;;;;;;6.13;72.21;100117.46;214902;1274;143298;-64
2022/05/15 03:00:05;;;;;;;13.40;7.40;;;;;;;6.01;71.96;100122.79;215004;1274;141058;-65
2022/05/15 03:05:10;;;;;;;8.50;6.00;;;;;;;5.90;72.30;100124.70;215470;1274;140322;-65
2022/05/15 03:10:17;;;;;;;10.70;7.50;;;;;;;5.86;72.23;100124.86;216079;1274;139787;-64
2022/05/15 03:15:22;;;;;;;8.50;6.90;;;;;;;5.88;72.34;100127.73;215875;1274;141865;-66
2022/05/15 03:20:27;;;;;;;13.20;8.20;;;;;;;5.92;72.35;100129.77;215916;1273;142114;-64
2022/05/15 03:25:33;;;;;;;6.30;5.80;;;;;;;6.00;72.38;100134.48;215307;1274;142515;-64
2022/05/15 03:30:38;;;;;;;9.30;7.00;;;;;;;6.39;72.53;100135.48;215678;1274;140962;-63
2022/05/15 03:35:40;;;;;;;10.80;6.40;;;;;;;6.70;72.56;100137.27;216149;1274;139818;-64
2022/05/15 03:40:44;;;;;;;8.70;5.30;;;;;;;6.80;72.43;100143.05;214535;1274;140868;-63
2022/05/15 03:45:47;;;;;;;10.00;5.70;;;;;;;7.01;72.08;100145.71;213730;1274;141121;-62
2022/05/15 03:50:50;;;;;;;10.60;6.50;;;;;;;7.86;71.24;100143.73;214276;1274;141794;-62
2022/05/15 03:55:56;;;;;;;7.50;6.00;;;;;;;8.27;71.09;100147.23;214263;1274;141976;-64
2022/05/15 04:01:02;;;;;;;7.90;5.30;;;;;;;8.34;70.89;100151.72;213945;1274;142512;-64
2022/05/15 04:06:04;;;;;;;5.70;5.20;;;;;;;8.58;70.44;100156.67;214341;1274;143136;-64
2022/05/15 04:11:06;;;;;;;16.50;6.10;;;;;;;9.00;70.39;100155.17;214119;1274;142047;-65
2022/05/15 04:16:09;;;;;;;8.50;6.40;;;;;;;9.73;69.82;100159.00;213819;1274;141464;-65
2022/05/15 04:21:12;;;;;;;8.40;5.60;;;;;;;10.57;69.19;100168.41;213878;1274;140246;-65
2022/05/15 04:26:15;;;;;;;11.50;6.00;;;;;;;11.42;68.59;100170.62;213984;1274;142027;-64
2022/05/15 04:31:18;;;;;;;7.30;5.50;;;;;;;11.70;68.37;100178.14;214106;1273;219872;-64
2022/05/15 04:36:20;;;;;;;9.10;5.60;;;;;;;11.66;68.51;100182.60;213794;1274;139987;-61
2022/05/15 04:41:23;;;;;;;9.20;5.50;;;;;;;11.99;67.90;100174.72;213023;1274;140308;-63
2022/05/15 04:46:28;;;;;;;7.00;4.80;;;;;;;12.48;67.18;100170.16;213469;1274;140611;-62
2022/05/15 04:51:33;;;;;;;9.80;4.80;;;;;;;12.86;66.29;100178.38;213305;1274;141172;-63
2022/05/15 04:56:37;;;;;;;5.90;4.20;;;;;;;13.83;65.12;100179.48;215336;1274;140198;-63
2022/05/15 05:01:41;;;;;;;13.50;4.20;;;;;;;14.04;64.65;100183.39;215250;1274;139939;-64
2022/05/15 05:06:43;;;;;;;10.20;4.00;;;;;;;13.87;64.19;100184.91;215436;1274;140002;-66
2022/05/15 05:11:46;;;;;;;3.80;3.60;;;;;;;14.30;63.31;100189.98;216085;1274;140755;-65
2022/05/15 05:16:49;;;;;;;9.00;4.70;;;;;;;18.16;59.30;100185.71;215899;1274;141882;-65
2022/05/15 05:21:52;;;;;;;4.40;3.30;;;;;;;22.58;55.40;100188.88;216081;1274;140614;-63
2022/05/15 05:26:59;;;;;;;5.60;2.70;;;;;;;26.03;51.12;100199.16;215990;1274;139471;-63
2022/05/15 05:32:03;;;;;;;5.40;2.80;;;;;;;28.65;46.46;100203.95;215989;1274;139972;-66
2022/05/15 05:37:06;;;;;;;4.30;2.10;;;;;;;30.46;42.78;100207.55;214846;1274;139880;-65
2022/05/15 05:42:10;;;;;;;3.60;1.60;;;;;;;31.97;39.54;100209.38;214795;1274;140741;-63
2022/05/15 05:47:12;;;;;;;1.60;1.30;;;;;;;33.15;36.93;100216.13;215476;1274;140249;-64
2022/05/15 05:52:13;;;;;;;2.90;1.00;;;;;;;34.20;34.44;100217.23;214430;1274;141011;-64
2022/05/15 05:57:17;;;;;;;1.80;1.40;;;;;;;34.68;32.16;100221.02;214410;1274;140676;-65
2022/05/15 06:02:20;;;;;;;4.30;2.00;;;;;;;34.11;31.57;100227.04;213250;1275;140238;-66
2022/05/15 06:07:27;;;;;;;3.90;1.30;;;;;;;32.83;30.87;100233.52;213880;1276;141809;-65
2022/05/15 06:12:30;;;;;;;3.80;2.00;;;;;;;30.61;31.13;100230.94;213549;1274;140674;-64
2022/05/15 06:17:34;;;;;;;2.50;1.30;;;;;;;30.11;31.25;100234.13;213614;1274;139848;-66
2022/05/15 06:22:36;;;;;;;3.50;1.30;;;;;;;28.91;32.00;100236.92;213472;1274;139782;-64
2022/05/15 06:27:39;;;;;;;3.80;2.10;;;;;;;27.56;32.49;100241.66;214196;1274;139881;-66
2022/05/15 06:32:43;;;;;;;2.80;1.10;;;;;;;25.58;33.20;100240.16;215165;1274;139710;-66
2022/05/15 06:37:47;;;;;;;1.90;1.40;;;;;;;23.65;34.58;100250.23;213255;1274;161752;-65
2022/05/15 06:42:50;;;;;;;3.00;2.00;;;;;;;22.30;36.07;100255.79;214584;1274;139698;-63
2022/05/15 06:47:53;;;;;;;2.80;1.30;;;;;;;21.11;36.79;100256.17;214204;1274;141301;-63
2022/05/15 06:52:56;;;;;;;4.90;1.80;;;;;;;20.27;37.88;100262.25;214790;1274;143181;-64
2022/05/15 06:58:00;;;;;;;2.40;1.30;;;;;;;19.83;38.45;100259.11;215007;1274;140854;-64
2022/05/15 07:03:03;;;;;;;2.70;1.20;;;;;;;20.71;39.19;100262.25;215330;1273;143766;-62
2022/05/15 07:08:08;;;;;;;2.20;1.10;;;;;;;22.31;38.49;100250.64;215624;1274;141192;-64
2022/05/15 07:13:11;;;;;;;4.90;1.60;;;;;;;23.44;37.39;100244.92;215857;1274;140053;-63
2022/05/15 07:18:14;;;;;;;2.30;1.40;;;;;;;24.13;36.90;100244.52;215983;1274;140015;-64
2022/05/15 07:23:19;;;;;;;2.00;1.10;;;;;;;24.55;36.80;100250.08;215994;1274;140630;-65
2022/05/15 07:28:23;;;;;;;1.30;0.90;;;;;;;24.64;35.91;100251.25;214457;1274;143888;-63
2022/05/15 07:33:29;;;;;;;0.80;0.60;;;;;;;24.35;35.46;100256.16;215135;1274;140528;-64
2022/05/15 07:38:31;;;;;;;2.40;1.40;;;;;;;24.18;35.30;100263.11;214652;1274;141057;-63
2022/05/15 07:43:35;;;;;;;4.80;1.10;;;;;;;24.11;35.07;100266.66;214556;1274;236920;-63
2022/05/15 07:48:39;;;;;;;5.60;1.40;;;;;;;23.83;35.14;100264.77;215017;1274;577160;-63
2022/05/15 07:53:43;;;;;;;2.00;0.90;;;;;;;23.62;34.76;100263.14;213730;1274;141086;-63
2022/05/15 07:58:47;;;;;;;2.50;0.60;;;;;;;23.24;34.62;100268.29;214925;1274;140234;-65
2022/05/15 08:03:50;;;;;;;1.70;0.80;;;;;;;22.88;34.38;100265.20;214466;1274;140456;-65
2022/05/15 08:08:55;;;;;;;1.70;0.80;;;;;;;22.81;34.78;100264.90;213475;1274;140173;-65
2022/05/15 08:14:03;;;;;;;1.80;1.10;;;;;;;22.76;34.57;100265.21;214940;1271;206326;-65
2022/05/15 08:24:33;;;;;;;2.90;0.70;;;;;;;22.38;35.10;100272.98;214227;1274;150669;-63
2022/05/15 08:29:38;;;;;;;2.30;1.10;;;;;;;22.40;35.28;100277.20;213335;1274;141597;-65
2022/05/15 08:34:41;;;;;;;2.10;0.90;;;;;;;22.41;35.37;100280.86;212861;1274;140902;-64
2022/05/15 08:39:44;;;;;;;1.50;0.70;;;;;;;22.14;35.51;100282.44;214129;1274;140192;-65
2022/05/15 08:44:47;;;;;;;2.20;1.20;;;;;;;22.07;35.31;100285.70;213716;1274;140197;-64
2022/05/15 08:49:58;;;;;;;2.70;1.00;;;;;;;21.92;35.54;100274.17;213509;1274;141105;-65
2022/05/15 08:55:15;;;;;;;3.10;1.20;;;;;;;21.95;35.62;100275.47;214791;1274;139782;-66
2022/05/15 09:00:31;;;;;;;3.90;1.10;;;;;;;21.84;35.26;100273.09;214975;1274;140666;-66
2022/05/15 09:05:34;;;;;;;3.90;1.40;;;;;;;21.79;35.51;100272.24;215524;1274;141549;-66
2022/05/15 09:10:47;;;;;;;3.50;1.00;;;;;;;21.88;35.72;100270.65;214979;1274;141945;-68
2022/05/15 09:15:58;;;;;;;0.80;0.70;;;;;;;21.95;35.64;100267.01;215677;1274;141102;-68
2022/05/15 09:21:13;;;;;;;2.60;1.30;;;;;;;21.81;35.09;100272.86;215775;1274;141244;-68
2022/05/15 09:26:37;;;;;;;2.90;1.10;;;;;;;21.52;34.71;100277.50;215939;1274;140599;-69
2022/05/15 09:31:42;;;;;;;5.10;1.00;;;;;;;21.28;34.76;100272.46;215539;1274;140136;-67
2022/05/15 09:36:46;;;;;;;1.20;0.90;;;;;;;21.25;35.25;100275.17;214617;1274;141662;-64
2022/05/15 09:47:40;;;;;;;1.90;1.00;;;;;;;21.15;35.27;100280.09;213599;1274;141137;-64
2022/05/15 09:52:44;;;;;;;1.00;0.60;;;;;;;21.15;35.48;100273.58;215324;1274;140361;-66
2022/05/15 09:57:58;;;;;;;2.60;1.20;;;;;;;21.17;35.36;100279.48;214413;1274;139935;-68
2022/05/15 10:03:18;;;;;;;5.10;1.60;;;;;;;21.14;35.53;100275.33;213674;1274;140072;-69
2022/05/15 10:08:24;;;;;;;0.80;0.80;;;;;;;21.27;35.64;100275.20;214331;1274;139726;-65
2022/05/15 10:13:31;;;;;;;2.30;1.20;;;;;;;21.39;35.81;100273.45;214630;1274;140355;-66
2022/05/15 10:18:53;;;;;;;2.60;1.00;;;;;;;21.41;35.40;100279.61;213232;1274;162003;-65
2022/05/15 10:24:04;;;;;;;1.20;0.70;;;;;;;21.35;34.96;100277.92;213661;1275;139937;-65
2022/05/15 10:29:30;;;;;;;1.40;0.90;;;;;;;21.36;35.11;100273.66;214182;1276;140365;-65
2022/05/15 10:34:33;;;;;;;1.90;1.10;;;;;;;21.43;35.63;100273.22;214676;1274;141568;-65
2022/05/15 10:39:44;;;;;;;1.00;0.70;;;;;;;21.50;35.74;100276.54;214698;1276;141723;-64
2022/05/15 10:44:58;;;;;;;1.40;1.00;;;;;;;21.62;35.45;100266.50;214824;1276;141153;-66
2022/05/15 10:50:19;;;;;;;6.50;1.00;;;;;;;21.60;35.46;100268.82;214559;1275;139686;-66
2022/05/15 11:01:14;;;;;;;0.70;0.70;;;;;;;21.42;35.28;100259.90;214520;1274;141188;-65
2022/05/15 11:06:46;;;;;;;1.50;0.80;;;;;;;21.40;34.81;100253.98;215856;1274;141750;-66
2022/05/15 11:12:02;;;;;;;1.00;0.90;;;;;;;21.40;34.64;100257.84;215988;1274;139732;-66
2022/05/15 11:17:25;;;;;;;1.90;0.60;;;;;;;21.45;34.84;100249.33;215673;1274;140413;-68
2022/05/15 11:22:31;;;;;;;2.30;1.30;;;;;;;21.49;34.51;100248.79;214647;1276;140547;-67
2022/05/15 11:27:49;;;;;;;3.10;1.10;;;;;;;21.45;34.29;100241.73;213312;1276;139677;-65
2022/05/15 11:32:52;;;;;;;0.70;0.70;;;;;;;21.42;34.25;100241.90;213783;1276;142370;-65
2022/05/15 11:38:18;;;;;;;3.50;0.70;;;;;;;21.24;34.17;100238.64;213617;1275;140218;-65
2022/05/15 11:43:27;;;;;;;3.60;0.80;;;;;;;21.31;34.59;100243.85;214585;1277;141012;-66
2022/05/15 11:48:43;;;;;;;2.30;1.30;;;;;;;21.39;34.70;100229.84;214313;1276;140789;-65
2022/05/15 11:53:54;;;;;;;2.10;0.90;;;;;;;21.40;34.49;100228.48;213909;1274;141743;-64
2022/05/15 11:59:04;;;;;;;4.80;0.90;;;;;;;21.49;34.27;100228.02;214153;1274;140379;-65
2022/05/15 12:04:16;;;;;;;1.10;0.80;;;;;;;21.52;33.97;100222.15;213586;1274;141725;-64
2022/05/15 12:09:41;;;;;;;1.80;0.90;;;;;;;21.41;34.09;100221.52;214993;1274;140075;-66
2022/05/15 12:15:04;;;;;;;1.20;1.10;;;;;;;21.40;34.17;100226.86;214242;1274;140453;-66
2022/05/15 12:20:37;;;;;;;0.50;0.50;;;;;;;21.35;33.64;100217.10;214247;1274;139816;-65
2022/05/15 12:26:05;;;;;;;3.10;1.00;;;;;;;21.31;34.10;100220.64;212693;1274;140944;-65
2022/05/15 12:31:15;;;;;;;1.00;0.70;;;;;;;21.40;34.45;100213.61;215268;1274;140256;-65
2022/05/15 12:36:43;;;;;;;1.10;0.80;;;;;;;21.43;33.84;100205.38;215049;1274;139861;-65
2022/05/15 12:41:47;;;;;;;0.70;0.70;;;;;;;21.44;34.34;100201.29;214259;1274;140237;-65
2022/05/15 12:47:01;;;;;;;2.00;0.60;;;;;;;21.47;34.28;100205.64;214338;1273;140306;-66
2022/05/15 12:52:14;;;;;;;2.30;0.80;;;;;;;21.52;34.10;100203.50;215839;1274;139891;-65
2022/05/15 12:57:17;;;;;;;2.30;1.30;;;;;;;21.56;33.77;100197.10;213515;1275;140600;-65
2022/05/15 13:02:34;;;;;;;2.00;0.90;;;;;;;21.55;33.43;100194.06;216126;1274;140314;-66
2022/05/15 13:07:39;;;;;;;1.70;1.10;;;;;;;21.43;33.43;100186.80;216023;1274;140634;-66
2022/05/15 13:12:50;;;;;;;0.60;0.60;;;;;;;21.46;33.35;100175.38;215961;1274;140155;-66
2022/05/15 13:17:55;;;;;;;3.80;1.00;;;;;;;21.48;33.09;100176.69;215631;1274;140971;-65
2022/05/15 13:22:59;;;;;;;8.70;0.90;;;;;;;21.38;32.87;100176.70;215784;1274;140581;-65
2022/05/15 13:28:04;;;;;;;1.60;0.50;;;;;;;21.39;32.82;100164.71;214433;1274;141786;-65
2022/05/15 13:33:23;;;;;;;1.30;0.60;;;;;;;21.44;32.91;100169.23;214673;1274;140559;-67
2022/05/15 13:38:28;;;;;;;1.40;0.70;;;;;;;21.44;32.59;100157.95;215108;1274;140629;-65
2022/05/15 13:43:32;;;;;;;1.20;0.90;;;;;;;21.35;32.78;100157.45;213489;1274;139663;-64
2022/05/15 13:48:58;;;;;;;3.20;0.70;;;;;;;21.18;32.90;100157.70;213304;1273;142363;-65
2022/05/15 13:54:13;;;;;;;0.40;0.40;;;;;;;21.08;33.00;100157.36;215089;1274;140273;-66
2022/05/15 13:59:28;;;;;;;0.60;0.60;;;;;;;21.09;32.79;100147.84;213434;1276;141286;-67
2022/05/15 14:04:31;;;;;;;2.90;1.00;;;;;;;21.06;33.05;100143.89;213758;1274;141725;-64
2022/05/15 14:09:49;;;;;;;1.10;0.60;;;;;;;21.04;32.95;100140.28;213652;1274;141148;-64
2022/05/15 14:14:58;;;;;;;6.20;1.00;;;;;;;20.97;33.11;100138.11;213823;1274;139711;-65
2022/05/15 14:20:09;;;;;;;1.20;0.70;;;;;;;20.97;33.07;100144.34;214630;1274;140291;-65
2022/05/15 14:25:13;;;;;;;0.40;0.40;;;;;;;21.05;33.03;100136.74;213954;1274;141122;-65
2022/05/15 14:30:18;;;;;;;0.90;0.60;;;;;;;20.96;32.96;100135.84;214220;1274;140143;-65
2022/05/15 14:35:26;;;;;;;0.40;0.40;;;;;;;20.86;33.16;100134.58;215911;1274;141169;-65
2022/05/15 14:40:28;;;;;;;0.80;0.80;;;;;;;20.91;33.15;100125.77;214746;1274;141057;-64
2022/05/15 14:45:55;;;;;;;2.70;1.20;;;;;;;20.95;33.02;100124.70;215088;1274;142234;-65
2022/05/15 14:51:00;;;;;;;3.20;0.80;;;;;;;20.97;32.85;100122.55;214979;1274;143648;-64
2022/05/15 14:56:08;;;;;;;1.30;0.80;;;;;;;20.89;32.93;100119.79;215912;1274;152394;-64
2022/05/15 15:01:10;;;;;;;6.10;1.60;;;;;;;20.85;32.99;100109.54;216050;1274;141205;-65
2022/05/15 15:06:13;;;;;;;1.20;0.50;;;;;;;20.78;33.09;100114.98;215865;1274;140331;-64
2022/05/15 15:11:20;;;;;;;1.60;0.50;;;;;;;20.84;33.25;100111.77;215837;1274;163137;-64
2022/05/15 15:16:26;;;;;;;2.90;1.50;;;;;;;20.83;33.50;100110.07;213558;1274;142510;-64
2022/05/15 15:21:31;;;;;;;1.70;0.70;;;;;;;20.83;33.57;100108.17;214091;1274;140976;-67
2022/05/15 15:26:35;;;;;;;2.80;0.50;;;;;;;20.78;33.15;100107.77;214659;1274;141801;-64
2022/05/15 15:31:41;;;;;;;4.90;0.80;;;;;;;20.71;33.22;100098.13;213426;1275;141159;-65
2022/05/15 15:38:14;;;;;;;1.90;0.60;;;;;;;20.55;33.72;100107.64;213640;1274;141541;-66
2022/05/15 15:42:10;;;;;;;1.10;0.90;;;;;;;20.48;33.74;100097.34;213504;1274;141591;-65
2022/05/15 15:47:15;;;;;;;3.70;1.30;;;;;;;20.49;33.95;100097.61;214066;1274;141965;-64
2022/05/15 15:52:21;;;;;;;4.00;1.30;;;;;;;20.42;33.99;100099.82;213785;1274;140896;-64
2022/05/15 15:57:25;;;;;;;3.00;1.80;;;;;;;20.31;34.05;100095.75;213037;1274;139968;-65
2022/05/15 16:02:29;;;;;;;1.90;0.80;;;;;;;20.26;34.41;100096.14;214127;1274;142070;-64
2022/05/15 16:07:34;;;;;;;2.10;0.90;;;;;;;20.17;34.36;100099.12;214381;1274;140276;-64
2022/05/15 16:12:41;;;;;;;1.20;1.10;;;;;;;20.12;34.77;100098.42;214649;1274;139862;-65
2022/05/15 16:17:45;;;;;;;3.20;1.20;;;;;;;20.09;34.92;100107.29;212945;1274;140968;-64
2022/05/15 16:22:51;;;;;;;1.60;1.20;;;;;;;20.06;34.73;100104.29;214470;1274;151318;-65
2022/05/15 16:27:54;;;;;;;4.10;1.20;;;;;;;20.02;35.13;100105.95;214632;1274;140963;-63
2022/05/15 16:32:56;;;;;;;1.20;1.20;;;;;;;19.95;35.01;100102.45;215170;1274;141655;-64
2022/05/15 16:37:59;;;;;;;1.10;1.00;;;;;;;19.85;35.02;100104.30;213459;1274;141609;-64
2022/05/15 16:43:03;;;;;;;3.40;0.70;;;;;;;19.75;35.30;100102.61;213271;1274;141988;-64
2022/05/15 16:48:08;;;;;;;2.20;0.70;;;;;;;19.58;35.38;100103.54;214293;1274;142386;-64
2022/05/15 16:53:12;;;;;;;1.00;0.70;;;;;;;19.48;35.50;100102.23;214033;1274;141352;-64
2022/05/15 16:58:14;;;;;;;2.80;0.70;;;;;;;19.40;35.77;100106.27;215935;1274;227095;-65
2022/05/15 17:03:18;;;;;;;1.20;0.70;;;;;;;19.29;35.96;100101.13;215814;1274;161823;-65
2022/05/15 17:08:21;;;;;;;1.70;1.10;;;;;;;19.16;36.09;100104.63;215577;1274;140429;-64
2022/05/15 17:13:23;;;;;;;2.20;0.80;;;;;;;19.10;36.68;100105.55;215993;1274;142309;-64
2022/05/15 17:18:27;;;;;;;1.20;0.80;;;;;;;18.98;36.71;100105.20;215591;1274;140964;-65
2022/05/15 17:23:33;;;;;;;1.60;1.00;;;;;;;18.88;36.92;100104.68;214978;1274;140677;-64
2022/05/15 17:34:12;;;;;;;1.30;1.00;;;;;;;18.65;37.56;100105.41;213055;1274;141999;-65
2022/05/15 17:39:18;;;;;;;1.80;1.70;;;;;;;18.50;38.04;100107.89;215257;1274;141703;-63
2022/05/15 17:44:26;;;;;;;4.30;1.80;;;;;;;18.36;38.45;100111.14;214714;1274;140087;-63
2022/05/15 17:49:30;;;;;;;5.50;2.00;;;;;;;18.23;38.71;100109.75;215038;1274;141386;-66
2022/05/15 17:54:33;;;;;;;2.40;1.40;;;;;;;18.08;39.17;100110.34;214618;1274;206677;-64
2022/05/15 17:59:37;;;;;;;6.10;2.20;;;;;;;17.91;39.51;100113.52;213842;1276;142917;-64
2022/05/15 18:04:41;;;;;;;3.00;1.50;;;;;;;17.68;39.87;100114.90;214365;1275;139694;-63
2022/05/15 18:09:45;;;;;;;2.40;1.60;;;;;;;17.42;40.51;100114.70;214857;1274;139758;-64
2022/05/15 18:14:47;;;;;;;13.90;3.10;;;;;;;17.14;41.19;100123.09;213878;1276;139848;-64
2022/05/15 18:19:51;;;;;;;1.90;1.60;;;;;;;16.83;41.70;100121.60;213517;1275;140521;-64
2022/05/15 18:24:55;;;;;;;1.70;1.30;;;;;;;16.49;42.54;100124.45;214588;1277;140757;-66
2022/05/15 18:29:58;;;;;;;3.20;1.90;;;;;;;16.16;43.21;100132.85;214628;1274;140063;-63
2022/05/15 18:35:01;;;;;;;1.40;1.30;;;;;;;15.88;44.11;100134.27;214119;1274;139758;-65
2022/05/15 18:40:06;;;;;;;2.30;1.00;;;;;;;15.61;44.97;100141.38;213549;1276;140373;-67
2022/05/15 18:45:14;;;;;;;2.50;1.00;;;;;;;15.33;45.61;100144.16;214086;1276;140343;-65
2022/05/15 18:55:41;;;;;;;1.80;0.90;;;;;;;14.66;47.04;100154.54;215770;1276;140760;-65
2022/05/15 19:00:45;;;;;;;1.80;1.00;;;;;;;14.37;47.99;100164.05;215800;1274;141160;-65
2022/05/15 19:05:48;;;;;;;6.30;2.10;;;;;;;14.17;48.37;100170.16;215722;1275;141014;-66
2022/05/15 19:10:52;;;;;;;5.30;1.80;;;;;;;13.97;49.09;100174.34;215764;1276;142328;-64
2022/05/15 19:15:55;;;;;;;3.80;1.40;;;;;;;13.80;49.57;100179.07;215774;1274;140264;-66
2022/05/15 19:21:01;;;;;;;4.60;2.20;;;;;;;13.62;50.12;100181.26;215385;1274;140712;-63
2022/05/15 19:26:04;;;;;;;1.40;1.30;;;;;;;13.42;50.73;100185.05;214508;1274;139810;-64
2022/05/15 19:31:11;;;;;;;3.40;1.90;;;;;;;13.20;51.27;100187.33;214168;1274;140486;-64
2022/05/15 19:36:16;;;;;;;3.20;1.50;;;;;;;12.93;51.66;100189.29;215161;1274;140058;-65
2022/05/15 19:41:18;;;;;;;13.00;2.40;;;;;;;12.67;52.31;100191.34;215475;1274;141624;-64
2022/05/15 19:46:24;;;;;;;2.60;1.60;;;;;;;12.44;53.02;100192.59;213553;1274;592169;-65
2022/05/15 19:51:30;;;;;;;4.20;2.20;;;;;;;12.22;53.47;100191.79;214586;1274;141846;-63
2022/05/15 19:56:42;;;;;;;3.00;1.50;;;;;;;11.97;54.35;100197.11;212990;1274;140095;-64
2022/05/15 20:01:49;;;;;;;2.50;2.00;;;;;;;11.72;54.93;100198.06;213352;1274;140441;-63
2022/05/15 20:12:34;;;;;;;4.70;2.40;;;;;;;11.20;56.09;100202.63;213506;1274;140859;-64
2022/05/15 20:17:41;;;;;;;3.00;1.60;;;;;;;10.99;56.82;100203.61;213979;1274;141899;-62
2022/05/15 20:22:44;;;;;;;1.70;1.60;;;;;;;10.75;57.28;100203.34;214598;1274;141997;-62
2022/05/15 20:27:47;;;;;;;3.20;2.20;;;;;;;10.64;57.76;100200.54;213261;1274;140249;-63
2022/05/15 20:32:50;;;;;;;2.70;2.20;;;;;;;10.50;57.81;100204.47;215025;1274;139822;-62
2022/05/15 20:37:58;;;;;;;2.40;2.20;;;;;;;10.32;58.30;100207.96;213965;1274;152251;-61
2022/05/15 20:43:02;;;;;;;3.30;2.00;;;;;;;10.16;58.67;100204.94;213085;1274;141038;-61
2022/05/15 20:48:05;;;;;;;3.10;2.20;;;;;;;10.03;59.10;100203.02;214624;1274;141134;-63
2022/05/15 20:53:09;;;;;;;3.60;2.20;;;;;;;9.89;59.20;100203.91;214794;1274;140918;-64
2022/05/15 20:58:12;;;;;;;2.60;2.20;;;;;;;9.77;59.73;100208.85;216154;1274;141505;-63
2022/05/15 21:03:15;;;;;;;3.10;2.70;;;;;;;9.66;60.16;100201.63;215791;1274;140274;-63
2022/05/15 21:08:19;;;;;;;2.80;2.50;;;;;;;9.61;60.77;100204.15;216006;1274;140198;-63
2022/05/15 21:13:22;;;;;;;3.90;2.90;;;;;;;9.63;60.91;100208.71;215786;1274;140941;-64
2022/05/15 21:18:26;;;;;;;2.90;2.40;;;;;;;9.58;61.19;100211.26;216079;1274;142172;-62
2022/05/15 21:23:29;;;;;;;4.00;3.00;;;;;;;9.51;61.56;100214.55;216028;1274;142389;-63
2022/05/15 21:28:37;;;;;;;6.60;2.70;;;;;;;9.43;61.67;100215.02;215344;1274;140838;-63
2022/05/15 21:33:41;;;;;;;4.10;2.70;;;;;;;9.39;62.17;100219.80;213947;1274;141548;-63
2022/05/15 21:44:06;;;;;;;2.20;2.00;;;;;;;9.40;62.82;100207.48;214051;1274;141035;-63
2022/05/15 21:49:09;;;;;;;4.50;2.70;;;;;;;9.29;62.79;100203.80;214271;1274;140427;-61
2022/05/15 21:54:13;;;;;;;5.10;3.10;;;;;;;9.14;63.28;100202.67;214185;1274;140362;-63
2022/05/15 22:04:38;;;;;;;8.20;3.40;;;;;;;9.08;64.48;100210.45;212703;1274;140339;-61
2022/05/15 22:09:41;;;;;;;5.20;2.90;;;;;;;9.19;64.80;100210.05;213583;1274;214595;-62
2022/05/15 22:14:45;;;;;;;4.00;2.70;;;;;;;9.24;64.64;100212.92;214087;1274;142396;-60
2022/05/15 22:19:48;;;;;;;6.70;4.10;;;;;;;9.27;65.07;100210.41;213245;1274;141547;-62
2022/05/15 22:24:50;;;;;;;7.60;3.20;;;;;;;9.26;64.98;100212.91;214463;1276;140142;-62
2022/05/15 22:30:05;;;;;;;4.20;3.00;;;;;;;9.19;64.90;100212.18;214861;1274;141135;-62
2022/05/15 22:35:09;;;;;;;3.50;2.90;;;;;;;9.05;64.94;100207.23;214154;1274;141177;-62
2022/05/15 22:40:13;;;;;;;5.10;3.90;;;;;;;8.92;64.89;100207.38;214371;1274;151964;-63
2022/05/15 22:45:17;;;;;;;6.10;3.90;;;;;;;8.89;65.12;100210.30;215741;1274;141275;-63
2022/05/15 22:50:27;;;;;;;6.30;3.30;;;;;;;8.74;65.01;100212.91;215371;1274;141229;-63
2022/05/15 22:55:30;;;;;;;6.90;3.40;;;;;;;8.62;65.09;100217.61;215379;1274;141995;-62
2022/05/15 23:00:34;;;;;;;6.10;3.90;;;;;;;8.64;65.68;100225.16;216014;1274;139821;-65
2022/05/15 23:11:00;;;;;;;8.90;3.60;;;;;;;8.68;66.06;100223.80;215584;1274;141554;-64
2022/05/15 23:16:03;;;;;;;8.80;4.00;;;;;;;8.68;65.83;100225.15;213958;1274;141638;-61
2022/05/15 23:21:07;;;;;;;4.40;3.20;;;;;;;8.55;66.17;100218.99;215768;1274;142527;-62
2022/05/15 23:26:13;;;;;;;5.20;3.60;;;;;;;8.37;66.12;100223.60;214350;1274;141640;-63
2022/05/15 23:31:16;;;;;;;4.40;4.00;;;;;;;8.20;66.32;100227.75;214126;1274;140448;-62
2022/05/15 23:36:21;;;;;;;5.00;4.50;;;;;;;8.09;66.56;100234.39;215044;1274;140474;-63
2022/05/15 23:41:24;;;;;;;4.40;2.90;;;;;;;8.07;67.29;100230.27;214445;1274;141020;-61
2022/05/15 23:46:27;;;;;;;6.00;3.90;;;;;;;8.04;67.33;100241.65;213487;1274;140601;-62
2022/05/15 23:51:30;;;;;;;12.80;4.30;;;;;;;8.02;67.20;100238.15;213114;1274;141832;-63
2022/05/15 23:56:32;;;;;;;6.50;3.80;;;;;;;7.94;67.11;100242.08;213047;1274;140745;-62
